createdAt,value
2022-10-28T00:00:00.707Z,15.97
2022-10-28T00:02:47.813Z,15.99
2022-10-28T00:05:35.890Z,15.94
2022-10-28T00:08:25.058Z,15.91
2022-10-28T00:11:14.188Z,15.83
2022-10-28T00:14:05.729Z,15.82
2022-10-28T00:16:52.997Z,15.85
2022-10-28T00:19:40.170Z,15.79
2022-10-28T00:22:27.569Z,15.75
2022-10-28T00:25:16.317Z,15.63
2022-10-28T00:28:03.379Z,15.64
2022-10-28T00:30:50.870Z,15.73
2022-10-28T00:33:39.598Z,15.65
2022-10-28T00:36:28.829Z,15.82
2022-10-28T00:39:17.987Z,15.62
2022-10-28T00:42:07.413Z,15.57
2022-10-28T00:44:58.332Z,15.32
2022-10-28T00:47:52.702Z,15.10
2022-10-28T00:50:47.309Z,15.21
2022-10-28T00:53:35.181Z,15.56
2022-10-28T00:59:22.910Z,15.74
2022-10-28T01:02:10.413Z,15.71
2022-10-28T01:04:57.741Z,15.77
2022-10-28T01:07:45.777Z,15.80
2022-10-28T01:10:46.048Z,15.62
2022-10-28T01:13:45.811Z,15.66
2022-10-28T01:16:43.403Z,15.49
2022-10-28T01:20:15.029Z,15.58
2022-10-28T01:23:09.501Z,15.62
2022-10-28T01:26:13.638Z,15.75
2022-10-28T01:29:55.820Z,15.74
2022-10-28T01:32:53.573Z,15.75
2022-10-28T01:35:50.088Z,15.67
2022-10-28T01:38:48.011Z,15.66
2022-10-28T01:41:38.952Z,15.60
2022-10-28T01:44:32.544Z,15.70
2022-10-28T01:47:24.056Z,15.66
2022-10-28T01:50:20.003Z,15.57
2022-10-28T01:53:11.154Z,15.61
2022-10-28T01:56:03.970Z,15.60
2022-10-28T01:58:52.480Z,15.65
2022-10-28T02:01:39.781Z,15.69
2022-10-28T02:04:27.640Z,15.63
2022-10-28T02:07:17.832Z,15.64
2022-10-28T02:10:12.949Z,15.62
2022-10-28T02:13:03.840Z,15.70
2022-10-28T02:15:57.778Z,15.67
2022-10-28T02:18:53.198Z,15.69
2022-10-28T02:21:50.986Z,15.69
2022-10-28T02:24:50.598Z,15.71
2022-10-28T02:27:44.082Z,15.64
2022-10-28T02:30:35.982Z,15.67
2022-10-28T02:33:28.246Z,15.71
2022-10-28T02:36:18.344Z,15.67
2022-10-28T02:39:07.859Z,15.77
2022-10-28T02:42:02.462Z,15.72
2022-10-28T02:44:55.124Z,15.78
2022-10-28T02:47:48.007Z,15.75
2022-10-28T02:50:39.518Z,15.80
2022-10-28T02:53:32.197Z,15.83
2022-10-28T02:56:22.496Z,15.79
2022-10-28T02:59:13.519Z,15.81
2022-10-28T03:02:01.325Z,15.82
2022-10-28T03:04:49.049Z,15.81
2022-10-28T03:07:36.599Z,15.78
2022-10-28T03:10:24.140Z,15.69
2022-10-28T03:13:11.478Z,15.76
2022-10-28T03:16:00.115Z,15.80
2022-10-28T03:18:47.098Z,15.76
2022-10-28T03:21:34.852Z,15.69
2022-10-28T03:24:22.573Z,15.67
2022-10-28T03:27:10.320Z,15.73
2022-10-28T03:29:57.761Z,15.77
2022-10-28T03:32:46.930Z,15.75
2022-10-28T03:35:34.563Z,15.79
2022-10-28T03:38:22.009Z,15.75
2022-10-28T03:41:09.350Z,15.79
2022-10-28T03:43:56.865Z,15.79
2022-10-28T03:46:44.157Z,15.84
2022-10-28T03:49:32.996Z,15.86
2022-10-28T03:52:20.371Z,15.82
2022-10-28T03:55:08.832Z,15.80
2022-10-28T03:57:56.404Z,15.87
2022-10-28T04:00:43.996Z,15.85
2022-10-28T04:03:31.610Z,15.96
2022-10-28T04:06:20.729Z,15.99
2022-10-28T04:09:08.977Z,15.94
2022-10-28T04:11:56.479Z,15.88
2022-10-28T04:14:44.028Z,15.92
2022-10-28T04:17:31.803Z,15.85
2022-10-28T04:20:19.429Z,15.89
2022-10-28T04:23:08.446Z,15.90
2022-10-28T04:25:56.440Z,15.83
2022-10-28T04:28:44.041Z,15.90
2022-10-28T04:31:31.187Z,15.86
2022-10-28T04:34:18.609Z,15.89
2022-10-28T04:37:06.180Z,15.88
2022-10-28T04:39:54.752Z,15.88
2022-10-28T04:42:42.640Z,15.88
2022-10-28T04:45:29.968Z,15.86
2022-10-28T04:48:17.074Z,15.90
2022-10-28T04:51:04.422Z,15.91
2022-10-28T04:53:51.892Z,16.00
2022-10-28T04:56:40.610Z,16.01
2022-10-28T04:59:27.918Z,15.97
2022-10-28T05:02:15.421Z,15.90
2022-10-28T05:05:04.566Z,15.87
2022-10-28T05:07:52.402Z,15.94
2022-10-28T05:10:40.338Z,15.98
2022-10-28T05:13:29.376Z,16.00
2022-10-28T05:16:17.136Z,15.99
2022-10-28T05:19:04.889Z,15.83
2022-10-28T05:21:52.808Z,15.96
2022-10-28T05:24:39.902Z,15.85
2022-10-28T05:27:27.827Z,15.88
2022-10-28T05:30:17.400Z,15.79
2022-10-28T05:33:05.735Z,15.76
2022-10-28T05:35:53.920Z,15.77
2022-10-28T05:38:42.483Z,15.84
2022-10-28T05:41:29.958Z,15.79
2022-10-28T05:44:17.355Z,15.66
2022-10-28T05:47:06.262Z,15.66
2022-10-28T05:49:53.808Z,15.66
2022-10-28T05:52:41.158Z,15.73
2022-10-28T05:55:31.711Z,15.70
2022-10-28T05:58:19.378Z,15.69
2022-10-28T06:01:09.781Z,15.67
2022-10-28T06:04:00.889Z,15.73
2022-10-28T06:06:48.710Z,15.61
2022-10-28T06:09:36.131Z,15.50
2022-10-28T06:12:21.908Z,15.51
2022-10-28T06:15:10.271Z,15.55
2022-10-28T06:17:57.683Z,15.65
2022-10-28T06:20:51.246Z,15.67
2022-10-28T06:23:38.472Z,15.73
2022-10-28T06:26:25.915Z,15.70
2022-10-28T06:29:13.898Z,15.64
2022-10-28T06:32:01.313Z,15.54
2022-10-28T06:34:48.595Z,15.67
2022-10-28T06:37:37.546Z,15.80
2022-10-28T06:40:26.563Z,15.88
2022-10-28T06:43:14.063Z,15.84
2022-10-28T06:46:03.971Z,15.96
2022-10-28T06:48:55.460Z,16.13
2022-10-28T06:51:42.941Z,16.33
2022-10-28T06:54:31.630Z,16.44
2022-10-28T06:57:19.316Z,16.48
2022-10-28T07:00:07.873Z,16.61
2022-10-28T07:02:56.455Z,16.62
2022-10-28T07:05:44.153Z,16.91
2022-10-28T07:08:32.689Z,17.08
2022-10-28T07:11:22.180Z,17.17
2022-10-28T07:14:09.590Z,17.12
2022-10-28T07:16:57.105Z,17.00
2022-10-28T07:19:44.717Z,16.94
2022-10-28T07:22:32.358Z,16.94
2022-10-28T07:25:19.638Z,16.92
2022-10-28T07:28:09.429Z,16.88
2022-10-28T07:31:00.996Z,16.98
2022-10-28T07:33:53.164Z,16.97
2022-10-28T07:36:40.720Z,17.07
2022-10-28T07:39:30.270Z,17.03
2022-10-28T07:42:17.534Z,16.96
2022-10-28T07:45:07.657Z,16.93
2022-10-28T07:47:55.348Z,17.04
2022-10-28T07:50:42.961Z,17.36
2022-10-28T07:53:30.429Z,17.80
2022-10-28T07:56:17.940Z,18.17
2022-10-28T07:59:05.108Z,18.31
2022-10-28T08:01:54.673Z,18.51
2022-10-28T08:04:42.163Z,18.62
2022-10-28T08:07:29.723Z,18.98
2022-10-28T08:10:17.930Z,18.91
2022-10-28T08:13:07.292Z,18.96
2022-10-28T08:15:54.625Z,18.98
2022-10-28T08:18:44.062Z,19.09
2022-10-28T08:21:31.521Z,19.30
2022-10-28T08:24:19.259Z,19.33
2022-10-28T08:27:06.901Z,19.35
2022-10-28T08:29:54.448Z,19.43
2022-10-28T08:32:41.954Z,19.55
2022-10-28T08:35:30.848Z,19.57
2022-10-28T08:38:19.780Z,19.87
2022-10-28T08:41:18.982Z,19.97
2022-10-28T08:44:46.950Z,19.90
2022-10-28T08:47:43.756Z,20.16
2022-10-28T08:50:36.149Z,20.18
2022-10-28T08:53:28.776Z,20.33
2022-10-28T08:56:20.790Z,20.48
2022-10-28T08:59:14.614Z,20.52
2022-10-28T09:02:12.973Z,20.58
2022-10-28T09:05:09.155Z,20.69
2022-10-28T09:07:59.545Z,20.77
2022-10-28T09:11:02.834Z,20.91
2022-10-28T09:14:20.847Z,21.09
2022-10-28T09:17:18.700Z,21.12
2022-10-28T09:20:16.487Z,21.31
2022-10-28T09:23:12.104Z,21.41
2022-10-28T09:26:11.292Z,21.40
2022-10-28T09:29:10.479Z,21.39
2022-10-28T09:32:07.533Z,21.62
2022-10-28T09:35:01.477Z,21.59
2022-10-28T09:37:53.818Z,21.72
2022-10-28T09:40:48.815Z,21.91
2022-10-28T09:43:39.516Z,21.98
2022-10-28T09:46:33.340Z,22.16
2022-10-28T09:49:27.362Z,22.21
2022-10-28T09:52:20.257Z,22.30
2022-10-28T09:55:17.682Z,22.24
2022-10-28T09:58:07.734Z,22.22
2022-10-28T10:00:57.091Z,22.39
2022-10-28T10:03:45.624Z,22.38
2022-10-28T10:06:36.819Z,22.39
2022-10-28T10:09:27.364Z,22.48
2022-10-28T10:12:15.416Z,22.69
2022-10-28T10:15:08.366Z,22.83
2022-10-28T10:17:59.285Z,23.02
2022-10-28T10:20:49.842Z,23.14
2022-10-28T10:26:33.856Z,23.28
2022-10-28T10:29:22.858Z,23.47
2022-10-28T10:32:19.028Z,23.52
2022-10-28T10:35:20.517Z,23.65
2022-10-28T10:38:09.215Z,23.60
2022-10-28T10:40:57.485Z,23.73
2022-10-28T10:43:45.398Z,23.88
2022-10-28T10:46:32.990Z,23.92
2022-10-28T10:49:21.588Z,23.95
2022-10-28T10:52:19.031Z,23.89
2022-10-28T10:55:09.147Z,23.99
2022-10-28T10:57:57.371Z,23.78
2022-10-28T11:00:48.744Z,23.66
2022-10-28T11:03:39.424Z,23.74
2022-10-28T11:06:31.820Z,23.71
2022-10-28T11:09:22.437Z,23.78
2022-10-28T11:12:17.626Z,23.78
2022-10-28T11:15:21.482Z,23.88
2022-10-28T11:18:20.689Z,23.88
2022-10-28T11:21:21.921Z,23.76
2022-10-28T11:24:38.241Z,23.64
2022-10-28T11:27:39.429Z,23.58
2022-10-28T11:30:38.195Z,23.52
2022-10-28T11:33:33.051Z,23.48
2022-10-28T11:36:25.001Z,23.47
2022-10-28T11:39:21.878Z,23.50
2022-10-28T11:42:23.764Z,23.71
2022-10-28T11:45:18.385Z,23.72
2022-10-28T11:48:23.940Z,23.65
2022-10-28T11:51:22.251Z,23.55
2022-10-28T11:54:32.994Z,23.53
2022-10-28T11:57:30.721Z,23.62
2022-10-28T12:00:32.235Z,23.48
2022-10-28T12:03:54.827Z,23.49
2022-10-28T12:06:58.793Z,23.59
2022-10-28T12:10:04.617Z,23.69
2022-10-28T12:13:01.247Z,23.62
2022-10-28T12:16:00.937Z,23.51
2022-10-28T12:18:54.208Z,23.50
2022-10-28T12:21:45.510Z,23.50
2022-10-28T12:24:37.081Z,23.55
2022-10-28T12:27:31.164Z,23.59
2022-10-28T12:30:23.469Z,23.62
2022-10-28T12:33:16.336Z,23.53
2022-10-28T12:36:22.146Z,23.65
2022-10-28T12:39:16.621Z,23.72
2022-10-28T12:42:07.005Z,23.74
2022-10-28T12:44:59.984Z,23.69
2022-10-28T12:47:53.239Z,23.68
2022-10-28T12:50:47.587Z,23.54
2022-10-28T12:53:41.589Z,23.44
2022-10-28T12:56:34.617Z,23.50
2022-10-28T12:59:29.120Z,23.72
2022-10-28T13:02:23.212Z,23.71
2022-10-28T13:05:21.893Z,23.68
2022-10-28T13:08:30.143Z,23.58
2022-10-28T13:11:53.004Z,23.58
2022-10-28T13:15:03.402Z,23.59
2022-10-28T13:18:06.821Z,23.66
2022-10-28T13:21:05.766Z,23.94
2022-10-28T13:23:59.733Z,23.98
2022-10-28T13:26:49.573Z,23.90
2022-10-28T13:29:39.496Z,23.85
2022-10-28T13:32:37.431Z,23.71
2022-10-28T13:35:30.363Z,23.83
2022-10-28T13:38:22.931Z,23.67
2022-10-28T13:41:27.535Z,23.65
2022-10-28T13:44:49.153Z,23.83
2022-10-28T13:47:37.844Z,23.79
2022-10-28T13:50:37.382Z,23.70
2022-10-28T13:53:55.364Z,23.73
2022-10-28T13:56:48.018Z,23.68
2022-10-28T13:59:50.483Z,23.60
2022-10-28T14:02:40.704Z,23.47
2022-10-28T14:05:54.812Z,23.40
2022-10-28T14:08:43.815Z,23.49
2022-10-28T14:11:32.745Z,23.56
2022-10-28T14:14:21.413Z,23.60
2022-10-28T14:17:22.294Z,23.65
2022-10-28T14:20:24.643Z,23.73
2022-10-28T14:23:49.383Z,23.64
2022-10-28T14:27:19.722Z,23.36
2022-10-28T14:30:20.213Z,23.26
2022-10-28T14:33:23.299Z,23.23
2022-10-28T14:36:28.344Z,23.00
2022-10-28T14:39:37.210Z,23.03
2022-10-28T14:42:40.120Z,22.91
2022-10-28T14:45:40.542Z,22.77
2022-10-28T14:48:41.620Z,22.68
2022-10-28T14:51:37.863Z,22.57
2022-10-28T14:54:40.619Z,22.48
2022-10-28T14:57:32.789Z,22.38
2022-10-28T15:00:26.090Z,22.34
2022-10-28T15:03:15.368Z,22.23
2022-10-28T15:06:03.858Z,22.11
2022-10-28T15:08:53.910Z,22.02
2022-10-28T15:11:46.405Z,21.96
2022-10-28T15:14:36.813Z,21.83
2022-10-28T15:17:27.095Z,21.87
2022-10-28T15:20:22.827Z,21.99
2022-10-28T15:23:13.928Z,21.88
2022-10-28T15:26:08.901Z,21.72
2022-10-28T15:28:56.911Z,21.65
2022-10-28T15:32:12.326Z,21.62
2022-10-28T15:35:00.491Z,21.52
2022-10-28T15:37:49.645Z,21.34
2022-10-28T15:40:39.093Z,21.39
2022-10-28T15:43:31.213Z,21.23
2022-10-28T15:46:19.000Z,21.34
2022-10-28T15:49:07.381Z,21.41
2022-10-28T15:52:22.271Z,21.36
2022-10-28T15:56:02.251Z,21.06
2022-10-28T15:58:42.499Z,20.91
2022-10-28T16:01:38.309Z,20.59
2022-10-28T16:04:44.300Z,20.50
2022-10-28T16:07:31.841Z,20.31
2022-10-28T16:10:19.742Z,20.19
2022-10-28T16:13:11.502Z,20.26
2022-10-28T16:16:02.840Z,20.17
2022-10-28T16:18:54.278Z,20.25
2022-10-28T16:21:42.015Z,20.35
2022-10-28T16:24:29.373Z,20.12
2022-10-28T16:27:19.591Z,20.06
2022-10-28T16:30:09.648Z,20.02
2022-10-28T16:32:58.156Z,19.97
2022-10-28T16:35:45.374Z,20.11
2022-10-28T16:38:33.495Z,19.65
2022-10-28T16:41:21.677Z,19.54
2022-10-28T16:44:17.849Z,19.33
2022-10-28T16:47:12.547Z,19.26
2022-10-28T16:50:00.110Z,19.48
2022-10-28T16:52:47.812Z,19.51
2022-10-28T16:55:35.032Z,19.47
2022-10-28T16:58:24.757Z,19.56
2022-10-28T17:01:19.606Z,19.50
2022-10-28T17:04:10.169Z,19.19
2022-10-28T17:06:57.816Z,18.94
2022-10-28T17:09:45.377Z,18.75
2022-10-28T17:12:33.097Z,18.67
2022-10-28T17:15:21.528Z,18.66
2022-10-28T17:18:10.331Z,18.70
2022-10-28T17:21:03.063Z,18.75
2022-10-28T17:23:50.719Z,18.98
2022-10-28T17:26:38.604Z,18.90
2022-10-28T17:29:26.196Z,18.81
2022-10-28T17:32:14.122Z,18.70
2022-10-28T17:35:01.529Z,18.77
2022-10-28T17:37:50.525Z,18.76
2022-10-28T17:40:38.097Z,18.94
2022-10-28T17:43:26.143Z,18.97
2022-10-28T17:46:13.989Z,19.11
2022-10-28T17:49:06.500Z,19.30
2022-10-28T17:51:53.833Z,19.35
2022-10-28T17:54:42.447Z,19.32
2022-10-28T17:57:30.389Z,19.41
2022-10-28T18:00:18.148Z,19.38
2022-10-28T18:03:06.408Z,19.41
2022-10-28T18:05:54.089Z,19.39
2022-10-28T18:08:43.345Z,19.49
2022-10-28T18:11:35.335Z,19.43
2022-10-28T18:14:22.952Z,19.31
2022-10-28T18:17:13.156Z,19.24
2022-10-28T18:20:02.165Z,19.26
2022-10-28T18:22:49.539Z,19.14
2022-10-28T18:25:37.608Z,19.14
2022-10-28T18:28:26.706Z,19.12
2022-10-28T18:31:16.347Z,19.11
2022-10-28T18:34:04.805Z,19.02
2022-10-28T18:36:53.025Z,18.95
2022-10-28T18:39:40.669Z,18.86
2022-10-28T18:42:28.154Z,18.79
2022-10-28T18:45:17.184Z,18.80
2022-10-28T18:48:06.564Z,18.82
2022-10-28T18:50:57.568Z,18.70
2022-10-28T18:53:47.206Z,18.39
2022-10-28T18:56:36.548Z,18.22
2022-10-28T18:59:24.261Z,18.07
2022-10-28T19:02:13.704Z,17.82
2022-10-28T19:05:01.011Z,17.72
2022-10-28T19:07:48.581Z,17.66
2022-10-28T19:10:35.775Z,17.57
2022-10-28T19:13:23.450Z,17.45
2022-10-28T19:16:14.009Z,17.32
2022-10-28T19:19:04.382Z,17.34
2022-10-28T19:21:52.326Z,17.24
2022-10-28T19:24:39.968Z,17.12
2022-10-28T19:27:27.155Z,16.95
2022-10-28T19:30:14.569Z,16.90
2022-10-28T19:33:02.155Z,16.78
2022-10-28T19:35:50.589Z,16.73
2022-10-28T19:38:39.312Z,16.61
2022-10-28T19:41:28.433Z,16.68
2022-10-28T19:44:16.127Z,16.63
2022-10-28T19:47:03.792Z,16.65
2022-10-28T19:49:51.563Z,16.63
2022-10-28T19:52:40.379Z,16.46
2022-10-28T19:55:27.971Z,16.32
2022-10-28T19:58:15.461Z,16.30
2022-10-28T20:01:04.363Z,16.35
2022-10-28T20:03:52.108Z,16.47
2022-10-28T20:06:41.342Z,16.53
2022-10-28T20:09:30.566Z,16.78
2022-10-28T20:12:18.426Z,16.62
2022-10-28T20:15:07.223Z,16.51
2022-10-28T20:17:54.420Z,16.39
2022-10-28T20:20:41.925Z,16.36
2022-10-28T20:23:29.560Z,16.44
2022-10-28T20:26:18.342Z,16.38
2022-10-28T20:29:06.847Z,16.54
2022-10-28T20:31:54.237Z,16.55
2022-10-28T20:34:41.577Z,16.61
2022-10-28T20:37:29.159Z,16.50
2022-10-28T20:40:17.209Z,16.51
2022-10-28T20:43:06.167Z,16.65
2022-10-28T20:45:55.603Z,16.61
2022-10-28T20:48:42.852Z,16.82
2022-10-28T20:51:31.648Z,16.65
2022-10-28T20:54:19.539Z,16.50
2022-10-28T20:57:06.879Z,16.50
2022-10-28T20:59:56.494Z,16.47
2022-10-28T21:02:43.829Z,16.41
2022-10-28T21:05:32.480Z,16.41
2022-10-28T21:08:20.037Z,16.37
2022-10-28T21:11:09.114Z,16.34
2022-10-28T21:13:58.415Z,16.24
2022-10-28T21:16:47.303Z,16.23
2022-10-28T21:19:34.980Z,16.26
2022-10-28T21:22:23.063Z,16.23
2022-10-28T21:25:11.161Z,16.35
2022-10-28T21:27:58.750Z,16.21
2022-10-28T21:30:46.326Z,16.12
2022-10-28T21:33:36.646Z,16.15
2022-10-28T21:36:24.351Z,16.12
2022-10-28T21:39:11.974Z,16.17
2022-10-28T21:41:59.432Z,16.28
2022-10-28T21:44:47.171Z,16.32
2022-10-28T21:47:35.221Z,16.22
2022-10-28T21:50:23.878Z,16.17
2022-10-28T21:53:11.462Z,16.14
2022-10-28T21:56:03.932Z,16.10
2022-10-28T21:58:51.957Z,16.02
2022-10-28T22:01:39.333Z,15.94
2022-10-28T22:04:27.140Z,15.85
2022-10-28T22:07:16.984Z,15.79
2022-10-28T22:10:04.683Z,15.78
2022-10-28T22:12:51.795Z,15.82
2022-10-28T22:15:38.974Z,15.83
2022-10-28T22:18:26.208Z,15.76
2022-10-28T22:21:14.782Z,15.70
2022-10-28T22:24:03.018Z,15.64
2022-10-28T22:26:50.091Z,15.61
2022-10-28T22:29:36.966Z,15.54
2022-10-28T22:32:23.643Z,15.52
2022-10-28T22:35:10.768Z,15.51
2022-10-28T22:37:57.784Z,15.50
2022-10-28T22:40:46.156Z,15.48
2022-10-28T22:43:33.376Z,15.58
2022-10-28T22:46:20.590Z,15.55
2022-10-28T22:49:07.686Z,15.52
2022-10-28T22:51:54.643Z,15.30
2022-10-28T22:54:41.447Z,15.24
2022-10-28T22:57:29.480Z,15.25
2022-10-28T23:03:11.347Z,15.22
2022-10-28T23:05:59.305Z,15.23
2022-10-28T23:08:47.757Z,15.35
2022-10-28T23:11:35.945Z,15.44
2022-10-28T23:14:24.633Z,15.43
2022-10-28T23:17:11.751Z,15.40
2022-10-28T23:19:58.464Z,15.45
2022-10-28T23:22:47.420Z,15.48
2022-10-28T23:25:34.519Z,15.53
2022-10-28T23:28:21.521Z,15.53
2022-10-28T23:31:14.273Z,15.51
2022-10-28T23:34:00.971Z,15.28
2022-10-28T23:36:50.090Z,15.22
2022-10-28T23:39:37.094Z,15.23
2022-10-28T23:42:24.514Z,15.20
2022-10-28T23:45:11.769Z,15.14
2022-10-28T23:47:59.929Z,15.07
2022-10-28T23:50:47.213Z,15.03
2022-10-28T23:53:34.690Z,15.13
2022-10-28T23:56:21.623Z,15.15
2022-10-28T23:59:08.391Z,15.28
